Time;durP1;ratioP1;P1;durP2;ratioP2;P2;SDS_P1;SDS_P2;PMS_P1;PMS_P2;Temp;Humidity;BMP_temperature;BMP_pressure;BME280_temperature;BME280_humidity;BME280_pressure;Samples;Min_cycle;Max_cycle;Signal;HPM_P1;HPM_P2
2021/10/08 00:03:26;;;;;;;;;;;19.10;47.60;;;;;;8233488;28;19921;-49
2021/10/08 00:07:27;;;;;;;;;;;19.20;47.60;;;;;;8233854;28;19933;-49
2021/10/08 00:11:28;;;;;;;;;;;19.10;47.60;;;;;;8233662;28;19910;-49
2021/10/08 00:15:28;;;;;;;;;;;19.10;47.50;;;;;;8233950;28;19914;-51
2021/10/08 00:19:29;;;;;;;;;;;19.10;47.50;;;;;;8233500;28;19929;-50
2021/10/08 00:23:29;;;;;;;;;;;19.10;47.50;;;;;;8233431;28;19914;-49
2021/10/08 00:27:30;;;;;;;;;;;19.10;47.50;;;;;;8232984;28;19942;-49
2021/10/08 00:31:30;;;;;;;;;;;19.10;47.50;;;;;;8234039;28;19910;-52
2021/10/08 00:35:31;;;;;;;;;;;19.10;47.50;;;;;;8233291;28;19914;-49
2021/10/08 00:39:31;;;;;;;;;;;19.10;47.50;;;;;;8232684;28;20350;-49
2021/10/08 00:43:32;;;;;;;;;;;19.10;47.50;;;;;;8233205;28;19914;-51
2021/10/08 00:47:32;;;;;;;;;;;19.10;47.50;;;;;;8233933;28;19914;-49
2021/10/08 00:51:33;;;;;;;;;;;19.10;47.50;;;;;;8232528;28;20048;-49
2021/10/08 00:55:34;;;;;;;;;;;19.10;47.50;;;;;;8233120;28;19914;-51
2021/10/08 00:59:35;;;;;;;;;;;19.10;47.50;;;;;;8232768;28;19922;-49
2021/10/08 01:03:36;;;;;;;;;;;19.00;47.50;;;;;;8232446;28;19943;-50
2021/10/08 01:07:37;;;;;;;;;;;19.10;47.50;;;;;;8233613;28;19914;-49
2021/10/08 01:11:38;;;;;;;;;;;19.00;47.50;;;;;;8231573;28;19918;-49
2021/10/08 01:15:38;;;;;;;;;;;19.00;47.50;;;;;;8232750;28;20347;-50
2021/10/08 01:19:39;;;;;;;;;;;19.00;47.50;;;;;;8232641;28;19926;-49
2021/10/08 01:23:39;;;;;;;;;;;19.00;47.50;;;;;;8232887;28;19910;-50
2021/10/08 01:27:40;;;;;;;;;;;19.00;47.50;;;;;;8232321;28;19921;-50
2021/10/08 01:31:42;;;;;;;;;;;19.00;47.50;;;;;;8232591;28;19918;-53
2021/10/08 01:35:42;;;;;;;;;;;19.00;47.50;;;;;;8235651;28;20010;-53
2021/10/08 01:39:43;;;;;;;;;;;19.00;47.60;;;;;;8238470;28;19957;-52
2021/10/08 01:43:44;;;;;;;;;;;19.00;47.50;;;;;;8239319;28;19956;-51
2021/10/08 01:47:44;;;;;;;;;;;19.00;47.60;;;;;;8237619;28;19918;-51
2021/10/08 01:51:45;;;;;;;;;;;19.00;47.50;;;;;;8237949;28;20299;-50
2021/10/08 01:55:45;;;;;;;;;;;19.00;47.50;;;;;;8238022;28;20279;-50
2021/10/08 01:59:46;;;;;;;;;;;19.00;47.50;;;;;;8237956;28;19918;-49
2021/10/08 02:03:47;;;;;;;;;;;19.00;47.50;;;;;;8237614;28;19914;-53
2021/10/08 02:07:47;;;;;;;;;;;19.00;47.50;;;;;;8237542;28;19925;-49
2021/10/08 02:11:48;;;;;;;;;;;19.00;47.60;;;;;;8236852;28;19914;-50
2021/10/08 02:15:48;;;;;;;;;;;19.00;47.50;;;;;;8238291;28;19914;-49
2021/10/08 02:19:49;;;;;;;;;;;18.90;47.50;;;;;;8237041;28;19929;-52
2021/10/08 02:23:50;;;;;;;;;;;19.00;47.60;;;;;;8236583;28;20312;-49
2021/10/08 02:27:50;;;;;;;;;;;18.90;47.50;;;;;;8237269;28;19989;-49
2021/10/08 02:31:51;;;;;;;;;;;18.90;47.50;;;;;;8236869;28;20013;-49
2021/10/08 02:35:52;;;;;;;;;;;18.90;47.50;;;;;;8237053;28;19910;-49
2021/10/08 02:39:52;;;;;;;;;;;18.90;47.50;;;;;;8236618;28;19922;-48
2021/10/08 02:43:53;;;;;;;;;;;18.90;47.60;;;;;;8236494;28;19921;-48
2021/10/08 02:47:53;;;;;;;;;;;18.90;47.60;;;;;;8234602;28;19961;-49
2021/10/08 02:51:54;;;;;;;;;;;18.90;47.50;;;;;;8236906;28;20267;-48
2021/10/08 02:55:54;;;;;;;;;;;18.90;47.60;;;;;;8235899;28;19914;-49
2021/10/08 02:59:55;;;;;;;;;;;18.90;47.50;;;;;;8235582;28;19922;-49
2021/10/08 03:03:55;;;;;;;;;;;18.90;47.50;;;;;;8235758;28;19940;-50
2021/10/08 03:07:55;;;;;;;;;;;18.90;47.50;;;;;;8236526;28;19914;-49
2021/10/08 03:11:56;;;;;;;;;;;18.90;47.60;;;;;;8235041;28;20008;-51
2021/10/08 03:15:56;;;;;;;;;;;18.90;47.60;;;;;;8235370;28;20283;-52
2021/10/08 03:19:57;;;;;;;;;;;18.90;47.60;;;;;;8235224;28;20307;-48
2021/10/08 03:23:57;;;;;;;;;;;18.90;47.60;;;;;;8234634;28;19928;-49
2021/10/08 03:27:58;;;;;;;;;;;18.90;48.20;;;;;;8236246;28;19914;-48
2021/10/08 03:31:58;;;;;;;;;;;18.90;47.60;;;;;;8234912;28;19949;-49
2021/10/08 03:35:59;;;;;;;;;;;18.80;47.60;;;;;;8234334;28;19921;-50
2021/10/08 03:39:59;;;;;;;;;;;18.90;47.60;;;;;;8234654;28;19922;-49
2021/10/08 03:44:02;;;;;;;;;;;18.90;47.70;;;;;;8235276;28;19965;-50
2021/10/08 03:48:19;;;;;;;;;;;18.90;47.60;;;;;;8233995;28;20005;-50
2021/10/08 03:52:20;;;;;;;;;;;18.90;47.70;;;;;;8240512;28;19973;-49
2021/10/08 03:56:21;;;;;;;;;;;18.90;47.70;;;;;;8233759;28;20345;-49
2021/10/08 04:00:22;;;;;;;;;;;18.90;47.70;;;;;;8233872;28;20357;-49
2021/10/08 04:04:22;;;;;;;;;;;18.80;47.70;;;;;;8234802;28;19917;-47
2021/10/08 04:08:23;;;;;;;;;;;18.80;47.70;;;;;;8234077;28;19953;-49
2021/10/08 04:12:23;;;;;;;;;;;18.90;47.80;;;;;;8232597;28;19914;-49
2021/10/08 04:16:24;;;;;;;;;;;18.80;47.70;;;;;;8233730;28;19914;-49
2021/10/08 04:20:24;;;;;;;;;;;18.80;47.70;;;;;;8234608;28;19914;-48
2021/10/08 04:24:25;;;;;;;;;;;18.80;47.70;;;;;;8233085;28;19914;-48
2021/10/08 04:28:25;;;;;;;;;;;18.80;47.70;;;;;;8233639;28;20260;-48
2021/10/08 04:32:26;;;;;;;;;;;18.80;47.70;;;;;;8233474;28;20260;-48
2021/10/08 04:36:26;;;;;;;;;;;18.80;47.70;;;;;;8233735;28;19918;-48
2021/10/08 04:40:26;;;;;;;;;;;18.80;47.70;;;;;;8233735;28;19913;-49
2021/10/08 04:44:27;;;;;;;;;;;18.80;47.70;;;;;;8233131;28;19918;-49
2021/10/08 04:48:27;;;;;;;;;;;18.80;48.30;;;;;;8232506;28;19918;-49
2021/10/08 04:52:28;;;;;;;;;;;18.80;47.70;;;;;;8232999;28;19926;-48
2021/10/08 04:56:32;;;;;;;;;;;18.80;47.70;;;;;;8233561;28;19910;-49
2021/10/08 05:00:33;;;;;;;;;;;18.80;47.70;;;;;;8232453;28;19981;-49
2021/10/08 05:04:33;;;;;;;;;;;18.80;47.70;;;;;;8232782;28;19918;-49
2021/10/08 05:08:34;;;;;;;;;;;18.80;47.70;;;;;;8233211;28;19914;-49
2021/10/08 05:12:34;;;;;;;;;;;18.80;47.80;;;;;;8239504;28;19910;-49
2021/10/08 05:16:35;;;;;;;;;;;18.80;47.70;;;;;;8239113;28;19918;-49
2021/10/08 05:20:35;;;;;;;;;;;18.80;47.70;;;;;;8239005;28;19976;-49
2021/10/08 05:24:36;;;;;;;;;;;18.80;47.80;;;;;;8238438;28;19914;-48
2021/10/08 05:28:36;;;;;;;;;;;18.80;47.70;;;;;;8238687;28;19944;-49
2021/10/08 05:32:37;;;;;;;;;;;18.80;47.80;;;;;;8239080;28;19910;-47
2021/10/08 05:36:37;;;;;;;;;;;18.80;47.80;;;;;;8238424;28;20145;-48
2021/10/08 05:40:37;;;;;;;;;;;18.80;47.80;;;;;;8238495;28;19925;-49
2021/10/08 05:44:38;;;;;;;;;;;18.70;47.70;;;;;;8237677;28;19921;-49
2021/10/08 05:48:38;;;;;;;;;;;18.80;47.70;;;;;;8239159;28;19949;-49
2021/10/08 05:52:39;;;;;;;;;;;18.80;47.70;;;;;;8238273;28;19954;-48
2021/10/08 05:56:39;;;;;;;;;;;18.80;47.70;;;;;;8237531;28;19972;-47
2021/10/08 06:00:40;;;;;;;;;;;18.80;47.70;;;;;;8237612;28;19915;-47
2021/10/08 06:04:40;;;;;;;;;;;18.70;47.70;;;;;;8238366;28;19914;-48
2021/10/08 06:08:40;;;;;;;;;;;18.80;47.70;;;;;;8237104;28;20012;-52
2021/10/08 06:12:42;;;;;;;;;;;18.70;47.70;;;;;;8237435;28;19981;-51
2021/10/08 06:16:42;;;;;;;;;;;18.80;47.70;;;;;;8237450;28;19958;-47
2021/10/08 06:20:42;;;;;;;;;;;18.80;47.70;;;;;;8236678;28;19910;-47
2021/10/08 06:24:43;;;;;;;;;;;18.70;47.70;;;;;;8238125;28;19910;-48
2021/10/08 06:28:43;;;;;;;;;;;18.70;47.70;;;;;;8236939;28;19914;-52
2021/10/08 06:32:44;;;;;;;;;;;18.70;47.70;;;;;;8236300;28;20390;-51
2021/10/08 06:36:44;;;;;;;;;;;18.70;47.80;;;;;;8236954;28;19925;-50
2021/10/08 06:40:45;;;;;;;;;;;18.80;47.80;;;;;;8237158;28;19956;-48
2021/10/08 06:44:46;;;;;;;;;;;18.80;47.80;;;;;;8236028;28;19961;-48
2021/10/08 06:48:46;;;;;;;;;;;18.70;47.80;;;;;;8236697;28;19914;-47
2021/10/08 06:52:46;;;;;;;;;;;18.70;47.80;;;;;;8236390;28;19973;-48
2021/10/08 06:56:47;;;;;;;;;;;18.70;47.80;;;;;;8236414;28;20000;-49
2021/10/08 07:00:47;;;;;;;;;;;18.80;47.90;;;;;;8236292;28;20012;-49
2021/10/08 07:04:48;;;;;;;;;;;18.70;47.80;;;;;;8234911;28;19918;-48
2021/10/08 07:08:48;;;;;;;;;;;18.70;47.80;;;;;;8235376;28;19917;-47
2021/10/08 07:12:49;;;;;;;;;;;18.70;47.80;;;;;;8235605;28;19914;-49
2021/10/08 07:16:51;;;;;;;;;;;18.70;47.90;;;;;;8236070;28;19922;-48
2021/10/08 07:20:51;;;;;;;;;;;18.70;47.90;;;;;;8234857;28;19910;-48
2021/10/08 07:24:52;;;;;;;;;;;18.80;47.90;;;;;;8235175;28;20060;-48
2021/10/08 07:28:52;;;;;;;;;;;18.80;47.90;;;;;;8234977;28;19910;-48
2021/10/08 07:32:52;;;;;;;;;;;18.80;47.90;;;;;;8234621;28;19914;-49
2021/10/08 07:36:53;;;;;;;;;;;18.80;47.90;;;;;;8234634;28;20439;-49
2021/10/08 07:40:53;;;;;;;;;;;18.80;47.90;;;;;;8234606;28;20004;-48
2021/10/08 07:44:54;;;;;;;;;;;18.80;47.90;;;;;;8234250;28;19917;-49
2021/10/08 07:48:54;;;;;;;;;;;18.80;47.90;;;;;;8234915;28;19910;-51
2021/10/08 07:52:55;;;;;;;;;;;18.80;47.90;;;;;;8235300;28;19918;-48
2021/10/08 07:56:55;;;;;;;;;;;18.80;48.00;;;;;;8233808;28;19961;-48
2021/10/08 08:00:56;;;;;;;;;;;18.80;47.90;;;;;;8234152;28;19914;-48
2021/10/08 08:04:57;;;;;;;;;;;18.80;48.00;;;;;;8234135;28;19925;-47
2021/10/08 08:08:57;;;;;;;;;;;18.80;48.00;;;;;;8234330;28;19910;-48
2021/10/08 08:12:58;;;;;;;;;;;18.80;48.00;;;;;;8233889;28;19918;-48
2021/10/08 08:16:58;;;;;;;;;;;18.80;47.90;;;;;;8233583;28;19965;-50
2021/10/08 08:20:59;;;;;;;;;;;18.80;47.90;;;;;;8233243;28;19921;-47
2021/10/08 08:24:59;;;;;;;;;;;18.90;48.00;;;;;;8234329;28;19917;-48
2021/10/08 08:28:59;;;;;;;;;;;18.90;48.00;;;;;;8233356;28;20356;-49
2021/10/08 08:33:00;;;;;;;;;;;18.90;48.00;;;;;;8232640;28;19914;-48
2021/10/08 08:37:00;;;;;;;;;;;18.90;48.00;;;;;;8233272;28;19922;-48
2021/10/08 08:41:01;;;;;;;;;;;18.90;48.00;;;;;;8233537;28;19910;-49
2021/10/08 08:45:02;;;;;;;;;;;18.90;48.00;;;;;;8233542;28;19910;-49
2021/10/08 08:49:03;;;;;;;;;;;18.90;48.00;;;;;;8233249;28;20290;-49
2021/10/08 08:53:04;;;;;;;;;;;18.90;48.00;;;;;;8233219;28;19925;-47
2021/10/08 08:57:20;;;;;;;;;;;18.90;48.00;;;;;;8232469;28;19922;-48
2021/10/08 09:01:21;;;;;;;;;;;18.90;48.00;;;;;;8234182;28;20343;-48
2021/10/08 09:05:26;;;;;;;;;;;18.90;48.00;;;;;;8232981;28;19915;-50
2021/10/08 09:09:26;;;;;;;;;;;18.90;48.00;;;;;;8232434;28;19923;-49
2021/10/08 09:13:27;;;;;;;;;;;18.90;48.00;;;;;;8232677;28;19918;-48
2021/10/08 09:17:29;;;;;;;;;;;18.90;48.00;;;;;;8232695;28;19921;-47
2021/10/08 09:21:32;;;;;;;;;;;18.90;48.00;;;;;;8232831;28;19914;-49
2021/10/08 09:25:36;;;;;;;;;;;18.90;48.00;;;;;;8232782;28;19941;-48
2021/10/08 09:29:45;;;;;;;;;;;18.90;48.00;;;;;;8232035;28;20352;-46
2021/10/08 09:33:45;;;;;;;;;;;18.90;48.00;;;;;;8232363;28;19914;-49
2021/10/08 09:37:53;;;;;;;;;;;18.90;48.00;;;;;;8232942;28;20287;-48
2021/10/08 09:41:56;;;;;;;;;;;19.00;48.00;;;;;;8231825;28;19961;-47
2021/10/08 09:45:57;;;;;;;;;;;19.00;48.10;;;;;;8232429;28;19964;-48
2021/10/08 09:50:08;;;;;;;;;;;19.00;48.10;;;;;;8232427;28;20468;-48
2021/10/08 09:54:09;;;;;;;;;;;19.00;48.00;;;;;;8232078;28;19996;-49
2021/10/08 09:58:09;;;;;;;;;;;19.00;48.00;;;;;;8238119;28;20385;-48
2021/10/08 10:02:09;;;;;;;;;;;19.00;48.00;;;;;;8236828;28;19914;-51
2021/10/08 10:06:10;;;;;;;;;;;19.00;48.00;;;;;;8237149;28;19914;-52
2021/10/08 10:10:10;;;;;;;;;;;19.00;48.00;;;;;;8237521;28;19914;-48
2021/10/08 10:14:12;;;;;;;;;;;19.00;48.00;;;;;;8237961;28;19910;-48
2021/10/08 10:18:16;;;;;;;;;;;19.00;48.00;;;;;;8236984;28;19922;-48
2021/10/08 10:22:18;;;;;;;;;;;19.10;48.00;;;;;;8237073;28;20283;-48
2021/10/08 10:26:19;;;;;;;;;;;19.10;48.00;;;;;;8237094;28;19941;-48
2021/10/08 10:30:20;;;;;;;;;;;19.10;48.00;;;;;;8236487;28;19910;-48
2021/10/08 10:34:20;;;;;;;;;;;19.10;47.90;;;;;;8237712;28;20037;-49
2021/10/08 10:38:21;;;;;;;;;;;19.20;47.90;;;;;;8236565;28;19922;-50
2021/10/08 10:42:21;;;;;;;;;;;19.20;47.90;;;;;;8236037;28;19914;-48
2021/10/08 10:50:48;;;;;;;;;;;19.20;47.80;;;;;;8239950;28;20040;-50
2021/10/08 10:54:49;;;;;;;;;;;19.30;47.90;;;;;;8236251;28;19922;-48
2021/10/08 10:59:10;;;;;;;;;;;19.30;47.90;;;;;;8236010;28;19991;-49
2021/10/08 11:03:18;;;;;;;;;;;19.30;47.80;;;;;;8235530;28;19914;-49
2021/10/08 11:07:22;;;;;;;;;;;19.30;47.80;;;;;;8234891;28;20290;-48
2021/10/08 11:11:22;;;;;;;;;;;19.30;47.80;;;;;;8236856;28;20004;-48
2021/10/08 11:15:23;;;;;;;;;;;19.30;47.80;;;;;;8235210;28;19918;-49
2021/10/08 11:19:37;;;;;;;;;;;19.30;47.80;;;;;;8235266;28;19922;-48
2021/10/08 11:23:39;;;;;;;;;;;19.40;47.80;;;;;;8234935;28;19917;-47
2021/10/08 11:27:40;;;;;;;;;;;19.40;47.80;;;;;;8235335;28;20392;-48
2021/10/08 11:31:40;;;;;;;;;;;19.40;47.70;;;;;;8235889;28;20401;-48
2021/10/08 11:35:41;;;;;;;;;;;19.40;47.70;;;;;;8234402;28;19918;-49
2021/10/08 11:39:43;;;;;;;;;;;19.40;47.70;;;;;;8234709;28;20000;-48
2021/10/08 11:43:44;;;;;;;;;;;19.40;47.70;;;;;;8234639;28;20385;-48
2021/10/08 11:47:52;;;;;;;;;;;19.40;47.60;;;;;;8235080;28;19992;-48
2021/10/08 11:51:56;;;;;;;;;;;19.50;47.70;;;;;;8241293;28;19961;-49
2021/10/08 11:55:56;;;;;;;;;;;19.50;47.70;;;;;;8234417;28;19921;-48
2021/10/08 11:59:57;;;;;;;;;;;19.50;47.70;;;;;;8233858;28;20004;-48
2021/10/08 12:03:57;;;;;;;;;;;19.50;47.60;;;;;;8234536;28;19910;-49
2021/10/08 12:08:01;;;;;;;;;;;19.50;47.60;;;;;;8234900;28;19914;-48
2021/10/08 12:12:11;;;;;;;;;;;19.50;47.60;;;;;;8233625;28;20347;-49
2021/10/08 12:16:17;;;;;;;;;;;19.60;47.60;;;;;;8234106;28;19918;-51
2021/10/08 12:20:22;;;;;;;;;;;19.60;47.60;;;;;;8233330;28;19922;-48
2021/10/08 12:24:23;;;;;;;;;;;19.60;47.60;;;;;;8233666;28;19910;-48
2021/10/08 12:28:24;;;;;;;;;;;19.60;47.60;;;;;;8233334;28;19968;-47
2021/10/08 12:32:25;;;;;;;;;;;19.60;47.60;;;;;;8233318;28;20371;-47
2021/10/08 12:36:27;;;;;;;;;;;19.60;47.60;;;;;;8232994;28;19946;-47
2021/10/08 12:40:28;;;;;;;;;;;19.60;47.50;;;;;;8233324;28;20346;-49
2021/10/08 12:44:31;;;;;;;;;;;19.70;47.60;;;;;;8234031;28;19960;-48
2021/10/08 12:48:32;;;;;;;;;;;19.70;47.60;;;;;;8232683;28;20299;-48
2021/10/08 12:52:34;;;;;;;;;;;19.70;47.60;;;;;;8233150;28;19925;-47
2021/10/08 12:56:35;;;;;;;;;;;19.70;47.60;;;;;;8232927;28;19960;-51
2021/10/08 13:00:47;;;;;;;;;;;19.70;47.60;;;;;;8233362;28;20367;-48
2021/10/08 13:04:48;;;;;;;;;;;19.70;47.60;;;;;;8232317;28;19921;-47
2021/10/08 13:09:05;;;;;;;;;;;19.70;47.50;;;;;;8232503;28;19918;-47
2021/10/08 13:13:07;;;;;;;;;;;19.70;47.60;;;;;;8232793;28;19921;-47
2021/10/08 13:17:17;;;;;;;;;;;19.70;47.60;;;;;;8232568;28;20367;-47
2021/10/08 13:21:18;;;;;;;;;;;19.70;47.60;;;;;;8233133;28;19910;-49
2021/10/08 13:25:19;;;;;;;;;;;19.70;47.60;;;;;;8232823;28;19918;-48
2021/10/08 13:29:19;;;;;;;;;;;19.70;47.60;;;;;;8232818;28;19914;-48
2021/10/08 13:33:21;;;;;;;;;;;19.80;47.50;;;;;;8238432;28;20290;-49
2021/10/08 13:37:22;;;;;;;;;;;19.80;47.50;;;;;;8239022;28;20437;-47
2021/10/08 13:41:22;;;;;;;;;;;19.80;47.50;;;;;;8239142;28;19910;-51
2021/10/08 13:45:23;;;;;;;;;;;19.80;47.60;;;;;;8237953;28;19922;-48
2021/10/08 13:49:24;;;;;;;;;;;19.80;47.60;;;;;;8238478;28;19921;-48
2021/10/08 13:53:24;;;;;;;;;;;19.80;47.60;;;;;;8238667;28;19922;-48
2021/10/08 13:57:25;;;;;;;;;;;19.80;47.50;;;;;;8238266;28;19918;-51
2021/10/08 14:01:25;;;;;;;;;;;19.80;48.00;;;;;;8237796;28;19914;-49
2021/10/08 14:14:04;;;;;;;;;;;19.80;47.50;;;;;;8239504;28;23501;-50
2021/10/08 14:18:05;;;;;;;;;;;19.80;47.50;;;;;;8237441;28;19918;-50
2021/10/08 14:22:05;;;;;;;;;;;19.80;47.50;;;;;;8237209;28;19914;-49
2021/10/08 14:26:06;;;;;;;;;;;19.80;47.40;;;;;;8237440;28;19917;-49
2021/10/08 14:30:11;;;;;;;;;;;19.80;47.50;;;;;;8236521;28;19958;-49
2021/10/08 14:34:11;;;;;;;;;;;19.80;47.50;;;;;;8237623;28;20316;-51
2021/10/08 14:38:14;;;;;;;;;;;19.80;47.50;;;;;;8236783;28;19922;-48
2021/10/08 14:42:14;;;;;;;;;;;19.80;47.40;;;;;;8236053;28;20349;-48
2021/10/08 14:46:15;;;;;;;;;;;19.80;47.40;;;;;;8236584;28;19918;-48
2021/10/08 14:50:15;;;;;;;;;;;19.90;47.50;;;;;;8236466;28;19921;-47
2021/10/08 14:58:16;;;;;;;;;;;19.80;48.00;;;;;;8236328;28;20021;-48
2021/10/08 15:02:17;;;;;;;;;;;19.80;47.50;;;;;;8235953;28;19940;-49
2021/10/08 15:06:17;;;;;;;;;;;19.80;47.40;;;;;;8235578;28;19976;-49
2021/10/08 15:10:18;;;;;;;;;;;19.80;47.40;;;;;;8236658;28;19914;-48
2021/10/08 15:14:18;;;;;;;;;;;19.80;47.40;;;;;;8235796;28;19917;-49
2021/10/08 15:18:19;;;;;;;;;;;19.80;47.40;;;;;;8234983;28;19926;-48
2021/10/08 15:22:19;;;;;;;;;;;19.90;47.40;;;;;;8235429;28;19910;-48
2021/10/08 15:26:20;;;;;;;;;;;19.80;47.40;;;;;;8236161;28;19964;-48
2021/10/08 15:30:21;;;;;;;;;;;19.80;47.40;;;;;;8234692;28;20355;-48
2021/10/08 15:34:22;;;;;;;;;;;19.80;47.40;;;;;;8235143;28;19937;-48
2021/10/08 15:38:22;;;;;;;;;;;19.90;47.50;;;;;;8234808;28;20356;-48
2021/10/08 15:42:23;;;;;;;;;;;19.90;47.50;;;;;;8234343;28;20005;-48
2021/10/08 15:46:23;;;;;;;;;;;19.90;47.40;;;;;;8235439;28;19968;-48
2021/10/08 15:50:24;;;;;;;;;;;19.80;47.40;;;;;;8234571;28;19921;-48
2021/10/08 15:54:24;;;;;;;;;;;19.80;47.40;;;;;;8233360;28;19965;-48
2021/10/08 15:58:25;;;;;;;;;;;19.90;47.50;;;;;;8234191;28;19965;-48
2021/10/08 16:02:25;;;;;;;;;;;19.80;47.50;;;;;;8235106;28;19967;-47
2021/10/08 16:06:26;;;;;;;;;;;19.80;47.40;;;;;;8232866;28;19921;-49
2021/10/08 16:10:26;;;;;;;;;;;19.90;47.50;;;;;;8233523;28;20351;-49
2021/10/08 16:14:27;;;;;;;;;;;19.90;47.50;;;;;;8234077;28;19910;-49
2021/10/08 16:18:34;;;;;;;;;;;19.80;47.40;;;;;;8233887;28;19964;-49
2021/10/08 16:22:35;;;;;;;;;;;19.80;47.40;;;;;;8235736;28;19914;-49
2021/10/08 16:26:36;;;;;;;;;;;19.90;47.40;;;;;;8233685;28;19910;-48
2021/10/08 16:30:37;;;;;;;;;;;19.80;47.50;;;;;;8233468;28;19921;-48
2021/10/08 16:34:37;;;;;;;;;;;19.90;47.50;;;;;;8233631;28;19965;-49
2021/10/08 16:38:38;;;;;;;;;;;19.80;47.40;;;;;;8233803;28;19922;-50
2021/10/08 16:42:40;;;;;;;;;;;19.80;47.40;;;;;;8233486;28;20363;-49
2021/10/08 16:46:40;;;;;;;;;;;19.80;47.40;;;;;;8232934;28;19960;-48
2021/10/08 16:50:41;;;;;;;;;;;19.80;47.40;;;;;;8232982;28;20373;-48
2021/10/08 16:54:43;;;;;;;;;;;19.80;47.40;;;;;;8234414;28;19964;-49
2021/10/08 16:58:44;;;;;;;;;;;19.80;47.40;;;;;;8232934;28;19928;-50
2021/10/08 17:02:44;;;;;;;;;;;19.80;47.40;;;;;;8232683;28;19910;-48
2021/10/08 17:06:45;;;;;;;;;;;19.80;47.40;;;;;;8237218;28;19914;-48
2021/10/08 17:10:46;;;;;;;;;;;19.80;47.50;;;;;;8239491;28;19910;-48
2021/10/08 17:14:46;;;;;;;;;;;19.80;47.40;;;;;;8239518;28;19921;-48
2021/10/08 17:18:47;;;;;;;;;;;19.80;47.40;;;;;;8239050;28;19922;-48
2021/10/08 17:22:47;;;;;;;;;;;19.80;47.40;;;;;;8239119;28;19910;-48
2021/10/08 17:26:57;;;;;;;;;;;19.80;47.50;;;;;;8238491;28;19981;-48
2021/10/08 17:35:16;;;;;;;;;;;19.80;47.40;;;;;;8242197;28;19918;-50
2021/10/08 17:39:17;;;;;;;;;;;19.80;47.40;;;;;;8237924;28;19926;-51
2021/10/08 17:43:17;;;;;;;;;;;19.80;47.40;;;;;;8238530;28;19910;-51
2021/10/08 17:47:18;;;;;;;;;;;19.80;47.40;;;;;;8238098;28;20675;-48
2021/10/08 17:51:19;;;;;;;;;;;19.80;47.40;;;;;;8238390;28;20394;-49
2021/10/08 17:55:20;;;;;;;;;;;19.80;47.40;;;;;;8238213;28;19917;-49
2021/10/08 17:59:20;;;;;;;;;;;19.80;47.40;;;;;;8237921;28;20283;-48
2021/10/08 18:03:21;;;;;;;;;;;19.80;47.40;;;;;;8237506;28;19925;-50
2021/10/08 18:07:21;;;;;;;;;;;19.80;47.40;;;;;;8238460;28;19910;-49
2021/10/08 18:11:22;;;;;;;;;;;19.80;47.40;;;;;;8237652;28;19969;-49
2021/10/08 18:15:22;;;;;;;;;;;19.80;47.40;;;;;;8236692;28;19914;-48
2021/10/08 18:19:22;;;;;;;;;;;19.80;47.40;;;;;;8237245;28;19925;-50
2021/10/08 18:23:23;;;;;;;;;;;19.70;47.30;;;;;;8237775;28;19921;-50
2021/10/08 18:27:24;;;;;;;;;;;19.80;47.30;;;;;;8237108;28;20345;-49
2021/10/08 18:31:25;;;;;;;;;;;19.80;47.30;;;;;;8237241;28;20413;-48
2021/10/08 18:35:25;;;;;;;;;;;19.70;47.30;;;;;;8237007;28;19917;-49
2021/10/08 18:39:26;;;;;;;;;;;19.80;47.40;;;;;;8236195;28;19976;-48
2021/10/08 18:43:26;;;;;;;;;;;19.80;47.40;;;;;;8237610;28;19945;-49
2021/10/08 18:47:26;;;;;;;;;;;19.80;47.40;;;;;;8236663;28;19956;-50
2021/10/08 18:51:28;;;;;;;;;;;19.70;47.30;;;;;;8235815;28;20359;-49
2021/10/08 18:55:30;;;;;;;;;;;19.70;47.30;;;;;;8236724;28;19960;-49
2021/10/08 18:59:30;;;;;;;;;;;19.80;47.30;;;;;;8237168;28;20423;-49
2021/10/08 19:03:31;;;;;;;;;;;19.80;47.30;;;;;;8235775;28;19914;-50
2021/10/08 19:07:32;;;;;;;;;;;19.80;47.30;;;;;;8235441;28;20001;-51
2021/10/08 19:11:37;;;;;;;;;;;19.70;47.30;;;;;;8235854;28;20298;-49
2021/10/08 19:20:16;;;;;;;;;;;19.80;47.30;;;;;;8270212;28;19925;-49
2021/10/08 19:24:17;;;;;;;;;;;19.70;47.30;;;;;;8235137;28;19914;-49
2021/10/08 19:28:18;;;;;;;;;;;19.80;47.30;;;;;;8234547;28;19921;-50
2021/10/08 19:32:19;;;;;;;;;;;19.80;47.30;;;;;;8235568;28;19913;-50
2021/10/08 19:36:19;;;;;;;;;;;19.70;47.30;;;;;;8234909;28;19910;-49
2021/10/08 19:40:19;;;;;;;;;;;19.70;47.30;;;;;;8235627;28;19997;-54
2021/10/08 19:44:25;;;;;;;;;;;19.70;47.30;;;;;;8234893;28;19914;-49
2021/10/08 19:48:26;;;;;;;;;;;19.70;47.30;;;;;;8235007;28;19914;-50
2021/10/08 19:52:26;;;;;;;;;;;19.70;47.30;;;;;;8234774;28;20340;-49
2021/10/08 19:56:26;;;;;;;;;;;19.80;47.30;;;;;;8235161;28;19910;-49
2021/10/08 20:00:27;;;;;;;;;;;19.70;47.20;;;;;;8233917;28;19932;-49
2021/10/08 20:04:40;;;;;;;;;;;19.70;47.20;;;;;;8234277;28;19997;-50
2021/10/08 20:13:45;;;;;;;;;;;19.80;47.20;;;;;;8237914;28;20362;-48
2021/10/08 20:17:20;;;;;;;;;;;19.70;47.10;;;;;;8234446;28;19918;-49
2021/10/08 20:21:21;;;;;;;;;;;19.80;47.20;;;;;;8233699;28;20755;-49
2021/10/08 20:25:24;;;;;;;;;;;19.70;47.20;;;;;;8233905;28;20290;-49
2021/10/08 20:29:25;;;;;;;;;;;19.70;47.20;;;;;;8233531;28;19948;-50
2021/10/08 20:33:28;;;;;;;;;;;19.70;47.20;;;;;;8233539;28;19910;-50
2021/10/08 20:37:29;;;;;;;;;;;19.70;47.20;;;;;;8233980;28;19925;-49
2021/10/08 20:41:29;;;;;;;;;;;19.70;47.20;;;;;;8233148;28;20291;-51
2021/10/08 20:45:30;;;;;;;;;;;19.70;47.20;;;;;;8232985;28;19914;-50
2021/10/08 20:49:30;;;;;;;;;;;19.70;47.30;;;;;;8233267;28;19925;-47
2021/10/08 20:53:31;;;;;;;;;;;19.70;47.20;;;;;;8234450;28;20357;-47
2021/10/08 20:57:31;;;;;;;;;;;19.70;47.20;;;;;;8232550;28;19922;-47
2021/10/08 21:01:31;;;;;;;;;;;19.70;47.20;;;;;;8232965;28;19973;-49
2021/10/08 21:05:32;;;;;;;;;;;19.70;47.10;;;;;;8233012;28;20382;-48
2021/10/08 21:09:33;;;;;;;;;;;19.70;47.20;;;;;;8233225;28;20264;-48
2021/10/08 21:13:33;;;;;;;;;;;19.70;47.20;;;;;;8232822;28;19920;-49
2021/10/08 21:17:34;;;;;;;;;;;19.70;47.20;;;;;;8232686;28;20438;-49
2021/10/08 21:21:35;;;;;;;;;;;19.70;47.10;;;;;;8232671;28;19996;-48
2021/10/08 21:25:37;;;;;;;;;;;19.70;47.20;;;;;;8232997;28;20283;-49
2021/10/08 21:29:39;;;;;;;;;;;19.70;47.10;;;;;;8233103;28;19910;-47
2021/10/08 21:33:41;;;;;;;;;;;19.70;47.10;;;;;;8232381;28;19918;-48
2021/10/08 21:37:46;;;;;;;;;;;19.70;47.10;;;;;;8232547;28;19922;-49
2021/10/08 21:46:05;;;;;;;;;;;19.70;47.10;;;;;;8233363;28;19917;-49
2021/10/08 21:50:06;;;;;;;;;;;19.70;47.00;;;;;;8232275;28;19914;-52
2021/10/08 21:54:07;;;;;;;;;;;19.70;47.10;;;;;;8238140;28;20029;-49
2021/10/08 21:58:07;;;;;;;;;;;19.70;47.10;;;;;;8238280;28;19925;-51
2021/10/08 22:02:08;;;;;;;;;;;19.70;47.00;;;;;;8237559;28;19964;-52
2021/10/08 22:06:08;;;;;;;;;;;19.70;47.00;;;;;;8238312;28;19914;-48
2021/10/08 22:10:09;;;;;;;;;;;19.60;47.00;;;;;;8237502;28;19985;-48
2021/10/08 22:14:10;;;;;;;;;;;19.60;47.00;;;;;;8237745;28;19914;-49
2021/10/08 22:18:12;;;;;;;;;;;19.60;47.00;;;;;;8236975;28;19922;-49
2021/10/08 22:22:13;;;;;;;;;;;19.60;47.00;;;;;;8238282;28;19910;-51
2021/10/08 22:26:23;;;;;;;;;;;19.60;47.00;;;;;;8237419;28;20385;-52
2021/10/08 22:34:44;;;;;;;;;;;19.60;47.00;;;;;;8237232;28;19917;-52
2021/10/08 22:38:45;;;;;;;;;;;19.60;47.00;;;;;;8236545;28;20261;-49
2021/10/08 22:42:45;;;;;;;;;;;19.60;47.00;;;;;;8237969;28;19910;-50
2021/10/08 22:46:48;;;;;;;;;;;19.60;47.00;;;;;;8236867;28;19914;-49
2021/10/08 22:50:48;;;;;;;;;;;19.50;47.00;;;;;;8236472;28;19910;-50
2021/10/08 22:54:49;;;;;;;;;;;19.60;47.00;;;;;;8236985;28;20506;-49
2021/10/08 22:58:49;;;;;;;;;;;19.50;47.00;;;;;;8237225;28;19953;-49
2021/10/08 23:02:50;;;;;;;;;;;19.50;46.90;;;;;;8235758;28;19965;-49
2021/10/08 23:07:02;;;;;;;;;;;19.50;47.00;;;;;;8236111;28;19921;-49
2021/10/08 23:19:22;;;;;;;;;;;19.50;46.90;;;;;;8236767;28;19918;-47
2021/10/08 23:23:23;;;;;;;;;;;19.50;46.90;;;;;;8235685;28;19914;-48
2021/10/08 23:27:23;;;;;;;;;;;19.50;46.90;;;;;;8235057;28;19914;-48
2021/10/08 23:31:24;;;;;;;;;;;19.50;46.90;;;;;;8235373;28;19914;-48
2021/10/08 23:35:24;;;;;;;;;;;19.50;46.90;;;;;;8235954;28;19964;-50
2021/10/08 23:39:25;;;;;;;;;;;19.50;46.90;;;;;;8234592;28;19976;-49
2021/10/08 23:43:25;;;;;;;;;;;19.50;46.90;;;;;;8235124;28;20089;-48
2021/10/08 23:47:25;;;;;;;;;;;19.50;46.90;;;;;;8234817;28;19921;-49
2021/10/08 23:51:26;;;;;;;;;;;19.50;46.90;;;;;;8234237;28;19918;-49
2021/10/08 23:55:26;;;;;;;;;;;19.40;46.90;;;;;;8235525;28;19917;-50
2021/10/08 23:59:27;;;;;;;;;;;19.50;46.90;;;;;;8234374;28;19968;-49
